sensor_id;sensor_type;location;lat;lon;timestamp;temperature;humidity
77496;SHT31;66600;48.378;9.948;2023-06-01T00:00:08;15.56;54.52
77496;SHT31;66600;48.378;9.948;2023-06-01T00:02:35;15.49;54.95
77496;SHT31;66600;48.378;9.948;2023-06-01T00:05:01;15.46;54.75
77496;SHT31;66600;48.378;9.948;2023-06-01T00:07:26;15.41;54.89
77496;SHT31;66600;48.378;9.948;2023-06-01T00:09:54;15.35;54.97
77496;SHT31;66600;48.378;9.948;2023-06-01T00:12:20;15.37;54.74
77496;SHT31;66600;48.378;9.948;2023-06-01T00:14:45;15.37;54.67
77496;SHT31;66600;48.378;9.948;2023-06-01T00:17:10;15.27;55.01
77496;SHT31;66600;48.378;9.948;2023-06-01T00:19:36;15.18;55.36
77496;SHT31;66600;48.378;9.948;2023-06-01T00:22:03;15.16;55.31
77496;SHT31;66600;48.378;9.948;2023-06-01T00:24:29;15.20;54.90
77496;SHT31;66600;48.378;9.948;2023-06-01T00:26:54;15.25;54.55
77496;SHT31;66600;48.378;9.948;2023-06-01T00:29:20;15.21;54.59
77496;SHT31;66600;48.378;9.948;2023-06-01T00:31:46;15.20;55.01
77496;SHT31;66600;48.378;9.948;2023-06-01T00:34:11;15.07;55.34
77496;SHT31;66600;48.378;9.948;2023-06-01T00:36:37;15.07;55.01
77496;SHT31;66600;48.378;9.948;2023-06-01T00:39:02;15.14;54.66
77496;SHT31;66600;48.378;9.948;2023-06-01T00:41:29;15.06;55.23
77496;SHT31;66600;48.378;9.948;2023-06-01T00:43:55;15.11;55.11
77496;SHT31;66600;48.378;9.948;2023-06-01T00:46:21;15.03;55.33
77496;SHT31;66600;48.378;9.948;2023-06-01T00:48:46;15.01;55.45
77496;SHT31;66600;48.378;9.948;2023-06-01T00:51:12;14.94;55.61
77496;SHT31;66600;48.378;9.948;2023-06-01T00:53:40;14.86;56.09
77496;SHT31;66600;48.378;9.948;2023-06-01T00:56:06;14.84;56.16
77496;SHT31;66600;48.378;9.948;2023-06-01T00:58:32;14.79;56.32
77496;SHT31;66600;48.378;9.948;2023-06-01T01:00:57;14.77;56.43
77496;SHT31;66600;48.378;9.948;2023-06-01T01:03:22;14.68;56.83
77496;SHT31;66600;48.378;9.948;2023-06-01T01:05:53;14.63;56.86
77496;SHT31;66600;48.378;9.948;2023-06-01T01:08:37;14.52;57.33
77496;SHT31;66600;48.378;9.948;2023-06-01T01:11:21;14.46;57.78
77496;SHT31;66600;48.378;9.948;2023-06-01T01:13:58;14.49;57.40
77496;SHT31;66600;48.378;9.948;2023-06-01T01:16:28;14.53;57.29
77496;SHT31;66600;48.378;9.948;2023-06-01T01:21:32;14.65;56.78
77496;SHT31;66600;48.378;9.948;2023-06-01T01:24:29;14.53;57.42
77496;SHT31;66600;48.378;9.948;2023-06-01T01:29:53;14.31;58.56
77496;SHT31;66600;48.378;9.948;2023-06-01T01:32:20;14.31;58.43
77496;SHT31;66600;48.378;9.948;2023-06-01T01:34:47;14.26;58.45
77496;SHT31;66600;48.378;9.948;2023-06-01T01:37:13;14.25;58.61
77496;SHT31;66600;48.378;9.948;2023-06-01T01:39:38;14.21;58.71
77496;SHT31;66600;48.378;9.948;2023-06-01T01:42:04;14.20;58.60
77496;SHT31;66600;48.378;9.948;2023-06-01T01:44:30;14.21;58.40
77496;SHT31;66600;48.378;9.948;2023-06-01T01:47:03;14.17;58.71
77496;SHT31;66600;48.378;9.948;2023-06-01T01:49:39;14.17;58.69
77496;SHT31;66600;48.378;9.948;2023-06-01T01:52:12;14.18;58.57
77496;SHT31;66600;48.378;9.948;2023-06-01T01:54:42;14.20;58.61
77496;SHT31;66600;48.378;9.948;2023-06-01T01:57:08;14.18;58.63
77496;SHT31;66600;48.378;9.948;2023-06-01T01:59:35;14.15;58.82
77496;SHT31;66600;48.378;9.948;2023-06-01T02:02:01;14.13;59.05
77496;SHT31;66600;48.378;9.948;2023-06-01T02:04:26;14.17;58.72
77496;SHT31;66600;48.378;9.948;2023-06-01T02:06:51;14.10;59.20
77496;SHT31;66600;48.378;9.948;2023-06-01T02:09:17;14.04;59.52
77496;SHT31;66600;48.378;9.948;2023-06-01T02:11:42;14.08;59.14
77496;SHT31;66600;48.378;9.948;2023-06-01T02:14:09;14.05;59.43
77496;SHT31;66600;48.378;9.948;2023-06-01T02:16:34;14.01;59.60
77496;SHT31;66600;48.378;9.948;2023-06-01T02:18:59;13.98;59.73
77496;SHT31;66600;48.378;9.948;2023-06-01T02:21:25;13.91;60.02
77496;SHT31;66600;48.378;9.948;2023-06-01T02:23:51;13.87;60.26
77496;SHT31;66600;48.378;9.948;2023-06-01T02:26:17;13.83;60.11
77496;SHT31;66600;48.378;9.948;2023-06-01T02:28:43;13.87;60.12
77496;SHT31;66600;48.378;9.948;2023-06-01T02:31:09;13.87;60.15
77496;SHT31;66600;48.378;9.948;2023-06-01T02:33:34;13.87;59.96
77496;SHT31;66600;48.378;9.948;2023-06-01T02:36:00;13.88;60.12
77496;SHT31;66600;48.378;9.948;2023-06-01T02:38:25;13.86;60.14
77496;SHT31;66600;48.378;9.948;2023-06-01T02:40:51;13.81;60.28
77496;SHT31;66600;48.378;9.948;2023-06-01T02:43:16;13.80;60.27
77496;SHT31;66600;48.378;9.948;2023-06-01T02:45:42;13.71;60.60
77496;SHT31;66600;48.378;9.948;2023-06-01T02:48:07;13.74;60.33
77496;SHT31;66600;48.378;9.948;2023-06-01T02:50:32;13.70;60.71
77496;SHT31;66600;48.378;9.948;2023-06-01T02:52:57;13.74;60.48
77496;SHT31;66600;48.378;9.948;2023-06-01T02:55:23;13.66;60.73
77496;SHT31;66600;48.378;9.948;2023-06-01T02:57:48;13.66;60.87
77496;SHT31;66600;48.378;9.948;2023-06-01T03:00:14;13.67;60.67
77496;SHT31;66600;48.378;9.948;2023-06-01T03:02:45;13.70;60.60
77496;SHT31;66600;48.378;9.948;2023-06-01T03:05:11;13.70;60.85
77496;SHT31;66600;48.378;9.948;2023-06-01T03:07:46;13.66;60.82
77496;SHT31;66600;48.378;9.948;2023-06-01T03:10:12;13.60;61.38
77496;SHT31;66600;48.378;9.948;2023-06-01T03:12:37;13.49;61.58
77496;SHT31;66600;48.378;9.948;2023-06-01T03:15:03;13.48;61.70
77496;SHT31;66600;48.378;9.948;2023-06-01T03:17:30;13.48;61.72
77496;SHT31;66600;48.378;9.948;2023-06-01T03:19:55;13.55;61.49
77496;SHT31;66600;48.378;9.948;2023-06-01T03:22:21;13.45;61.75
77496;SHT31;66600;48.378;9.948;2023-06-01T03:24:46;13.45;61.86
77496;SHT31;66600;48.378;9.948;2023-06-01T03:27:15;13.48;61.90
77496;SHT31;66600;48.378;9.948;2023-06-01T03:29:41;13.49;61.81
77496;SHT31;66600;48.378;9.948;2023-06-01T03:32:06;13.50;61.70
77496;SHT31;66600;48.378;9.948;2023-06-01T03:34:32;13.58;61.63
77496;SHT31;66600;48.378;9.948;2023-06-01T03:36:58;13.52;61.90
77496;SHT31;66600;48.378;9.948;2023-06-01T03:39:23;13.50;61.90
77496;SHT31;66600;48.378;9.948;2023-06-01T03:41:49;13.52;62.03
77496;SHT31;66600;48.378;9.948;2023-06-01T03:44:14;13.52;62.12
77496;SHT31;66600;48.378;9.948;2023-06-01T03:46:39;13.52;62.34
77496;SHT31;66600;48.378;9.948;2023-06-01T03:49:05;13.46;62.44
77496;SHT31;66600;48.378;9.948;2023-06-01T03:51:31;13.46;62.53
77496;SHT31;66600;48.378;9.948;2023-06-01T03:53:57;13.43;62.66
77496;SHT31;66600;48.378;9.948;2023-06-01T03:56:22;13.49;62.53
77496;SHT31;66600;48.378;9.948;2023-06-01T03:58:48;13.55;62.52
77496;SHT31;66600;48.378;9.948;2023-06-01T04:01:13;13.58;62.36
77496;SHT31;66600;48.378;9.948;2023-06-01T04:03:42;13.55;62.48
77496;SHT31;66600;48.378;9.948;2023-06-01T04:06:08;13.58;62.39
77496;SHT31;66600;48.378;9.948;2023-06-01T04:08:37;13.60;62.34
77496;SHT31;66600;48.378;9.948;2023-06-01T04:11:07;13.60;62.60
77496;SHT31;66600;48.378;9.948;2023-06-01T04:13:32;13.63;62.55
77496;SHT31;66600;48.378;9.948;2023-06-01T04:15:58;13.66;62.65
77496;SHT31;66600;48.378;9.948;2023-06-01T04:18:23;13.69;62.66
77496;SHT31;66600;48.378;9.948;2023-06-01T04:20:48;13.77;62.40
77496;SHT31;66600;48.378;9.948;2023-06-01T04:23:13;13.86;62.13
77496;SHT31;66600;48.378;9.948;2023-06-01T04:25:39;13.88;62.12
77496;SHT31;66600;48.378;9.948;2023-06-01T04:28:05;13.88;62.07
77496;SHT31;66600;48.378;9.948;2023-06-01T04:30:30;13.88;62.34
77496;SHT31;66600;48.378;9.948;2023-06-01T04:32:55;13.94;62.03
77496;SHT31;66600;48.378;9.948;2023-06-01T04:35:21;13.96;62.12
77496;SHT31;66600;48.378;9.948;2023-06-01T04:37:46;13.98;62.36
77496;SHT31;66600;48.378;9.948;2023-06-01T04:40:12;14.05;61.81
77496;SHT31;66600;48.378;9.948;2023-06-01T04:42:40;14.10;61.81
77496;SHT31;66600;48.378;9.948;2023-06-01T04:45:21;14.20;61.69
77496;SHT31;66600;48.378;9.948;2023-06-01T04:47:46;14.31;61.51
77496;SHT31;66600;48.378;9.948;2023-06-01T04:50:13;14.36;61.87
77496;SHT31;66600;48.378;9.948;2023-06-01T04:52:41;14.43;61.23
77496;SHT31;66600;48.378;9.948;2023-06-01T04:55:07;14.53;61.43
77496;SHT31;66600;48.378;9.948;2023-06-01T04:57:34;14.59;61.76
77496;SHT31;66600;48.378;9.948;2023-06-01T05:00:01;14.68;61.03
77496;SHT31;66600;48.378;9.948;2023-06-01T05:02:27;14.72;61.28
77496;SHT31;66600;48.378;9.948;2023-06-01T05:04:52;14.80;60.60
77496;SHT31;66600;48.378;9.948;2023-06-01T05:07:17;14.89;60.75
77496;SHT31;66600;48.378;9.948;2023-06-01T05:09:43;14.91;60.83
77496;SHT31;66600;48.378;9.948;2023-06-01T05:12:08;14.99;60.88
77496;SHT31;66600;48.378;9.948;2023-06-01T05:14:34;15.14;60.76
77496;SHT31;66600;48.378;9.948;2023-06-01T05:16:59;15.16;60.21
77496;SHT31;66600;48.378;9.948;2023-06-01T05:19:25;15.28;60.12
77496;SHT31;66600;48.378;9.948;2023-06-01T05:21:50;15.34;59.56
77496;SHT31;66600;48.378;9.948;2023-06-01T05:24:15;15.45;59.81
77496;SHT31;66600;48.378;9.948;2023-06-01T05:26:41;15.56;59.62
77496;SHT31;66600;48.378;9.948;2023-06-01T05:29:06;15.65;59.77
77496;SHT31;66600;48.378;9.948;2023-06-01T05:31:32;15.66;59.43
77496;SHT31;66600;48.378;9.948;2023-06-01T05:33:57;15.72;58.95
77496;SHT31;66600;48.378;9.948;2023-06-01T05:36:22;15.86;59.18
77496;SHT31;66600;48.378;9.948;2023-06-01T05:38:48;16.00;58.61
77496;SHT31;66600;48.378;9.948;2023-06-01T05:41:13;16.16;58.43
77496;SHT31;66600;48.378;9.948;2023-06-01T05:43:38;16.13;57.67
77496;SHT31;66600;48.378;9.948;2023-06-01T05:46:03;16.27;57.17
77496;SHT31;66600;48.378;9.948;2023-06-01T05:48:29;16.32;57.32
77496;SHT31;66600;48.378;9.948;2023-06-01T05:50:55;16.40;56.93
77496;SHT31;66600;48.378;9.948;2023-06-01T05:53:20;16.35;56.50
77496;SHT31;66600;48.378;9.948;2023-06-01T05:55:50;16.44;56.45
77496;SHT31;66600;48.378;9.948;2023-06-01T05:58:15;16.73;56.27
77496;SHT31;66600;48.378;9.948;2023-06-01T06:00:41;16.75;55.77
77496;SHT31;66600;48.378;9.948;2023-06-01T06:03:06;16.73;55.77
77496;SHT31;66600;48.378;9.948;2023-06-01T06:05:32;16.89;55.29
77496;SHT31;66600;48.378;9.948;2023-06-01T06:07:57;17.09;55.52
77496;SHT31;66600;48.378;9.948;2023-06-01T06:10:22;17.20;54.72
77496;SHT31;66600;48.378;9.948;2023-06-01T06:12:48;17.33;53.22
77496;SHT31;66600;48.378;9.948;2023-06-01T06:15:13;17.34;53.75
77496;SHT31;66600;48.378;9.948;2023-06-01T06:17:38;17.31;53.31
77496;SHT31;66600;48.378;9.948;2023-06-01T06:20:05;17.62;53.32
77496;SHT31;66600;48.378;9.948;2023-06-01T06:22:34;17.70;51.54
77496;SHT31;66600;48.378;9.948;2023-06-01T06:24:59;17.82;51.16
77496;SHT31;66600;48.378;9.948;2023-06-01T06:27:24;17.83;51.11
77496;SHT31;66600;48.378;9.948;2023-06-01T06:29:50;17.77;51.08
77496;SHT31;66600;48.378;9.948;2023-06-01T06:32:15;17.81;51.45
77496;SHT31;66600;48.378;9.948;2023-06-01T06:34:40;17.86;51.96
77496;SHT31;66600;48.378;9.948;2023-06-01T06:37:06;17.54;50.94
77496;SHT31;66600;48.378;9.948;2023-06-01T06:39:32;17.51;51.34
77496;SHT31;66600;48.378;9.948;2023-06-01T06:41:58;17.74;51.33
77496;SHT31;66600;48.378;9.948;2023-06-01T06:44:23;18.17;51.21
77496;SHT31;66600;48.378;9.948;2023-06-01T06:46:48;18.26;50.36
77496;SHT31;66600;48.378;9.948;2023-06-01T06:49:14;17.89;50.29
77496;SHT31;66600;48.378;9.948;2023-06-01T06:51:39;18.32;50.34
77496;SHT31;66600;48.378;9.948;2023-06-01T06:54:05;18.43;49.99
77496;SHT31;66600;48.378;9.948;2023-06-01T06:56:31;18.54;50.17
77496;SHT31;66600;48.378;9.948;2023-06-01T06:58:57;18.82;49.17
77496;SHT31;66600;48.378;9.948;2023-06-01T07:01:22;18.61;48.93
77496;SHT31;66600;48.378;9.948;2023-06-01T07:03:50;18.98;49.34
77496;SHT31;66600;48.378;9.948;2023-06-01T07:06:16;18.65;49.02
77496;SHT31;66600;48.378;9.948;2023-06-01T07:08:42;19.05;48.73
77496;SHT31;66600;48.378;9.948;2023-06-01T07:11:07;18.65;49.22
77496;SHT31;66600;48.378;9.948;2023-06-01T07:13:32;18.74;48.93
77496;SHT31;66600;48.378;9.948;2023-06-01T07:15:58;18.81;49.90
77496;SHT31;66600;48.378;9.948;2023-06-01T07:18:23;19.37;48.90
77496;SHT31;66600;48.378;9.948;2023-06-01T07:20:48;19.67;47.79
77496;SHT31;66600;48.378;9.948;2023-06-01T07:23:13;19.41;48.55
77496;SHT31;66600;48.378;9.948;2023-06-01T07:25:41;19.81;47.95
77496;SHT31;66600;48.378;9.948;2023-06-01T07:28:06;20.06;47.36
77496;SHT31;66600;48.378;9.948;2023-06-01T07:30:32;20.37;47.07
77496;SHT31;66600;48.378;9.948;2023-06-01T07:32:57;20.50;46.86
77496;SHT31;66600;48.378;9.948;2023-06-01T07:35:23;19.87;47.93
77496;SHT31;66600;48.378;9.948;2023-06-01T07:37:48;19.49;47.68
77496;SHT31;66600;48.378;9.948;2023-06-01T07:40:13;19.75;48.49
77496;SHT31;66600;48.378;9.948;2023-06-01T07:42:39;20.37;47.20
77496;SHT31;66600;48.378;9.948;2023-06-01T07:45:04;20.69;46.90
77496;SHT31;66600;48.378;9.948;2023-06-01T07:47:31;20.92;46.80
77496;SHT31;66600;48.378;9.948;2023-06-01T07:49:56;21.26;45.21
77496;SHT31;66600;48.378;9.948;2023-06-01T07:52:22;21.21;45.35
77496;SHT31;66600;48.378;9.948;2023-06-01T07:54:47;21.04;45.45
77496;SHT31;66600;48.378;9.948;2023-06-01T07:57:15;20.84;45.96
77496;SHT31;66600;48.378;9.948;2023-06-01T07:59:40;21.09;46.31
77496;SHT31;66600;48.378;9.948;2023-06-01T08:02:06;20.88;47.15
77496;SHT31;66600;48.378;9.948;2023-06-01T08:04:32;21.17;46.60
77496;SHT31;66600;48.378;9.948;2023-06-01T08:06:59;21.18;46.70
77496;SHT31;66600;48.378;9.948;2023-06-01T08:09:28;21.43;45.91
77496;SHT31;66600;48.378;9.948;2023-06-01T08:11:53;21.42;45.66
77496;SHT31;66600;48.378;9.948;2023-06-01T08:14:18;21.42;46.01
77496;SHT31;66600;48.378;9.948;2023-06-01T08:16:44;20.81;46.44
77496;SHT31;66600;48.378;9.948;2023-06-01T08:19:10;21.26;47.82
77496;SHT31;66600;48.378;9.948;2023-06-01T08:21:36;21.34;46.60
77496;SHT31;66600;48.378;9.948;2023-06-01T08:24:02;21.05;46.31
77496;SHT31;66600;48.378;9.948;2023-06-01T08:26:28;21.21;47.27
77496;SHT31;66600;48.378;9.948;2023-06-01T08:28:55;21.79;46.64
77496;SHT31;66600;48.378;9.948;2023-06-01T08:31:23;21.82;46.03
77496;SHT31;66600;48.378;9.948;2023-06-01T08:33:50;22.14;45.57
77496;SHT31;66600;48.378;9.948;2023-06-01T08:36:17;21.14;46.47
77496;SHT31;66600;48.378;9.948;2023-06-01T08:38:43;21.53;47.17
77496;SHT31;66600;48.378;9.948;2023-06-01T08:41:42;22.18;45.32
77496;SHT31;66600;48.378;9.948;2023-06-01T08:44:11;22.34;45.28
77496;SHT31;66600;48.378;9.948;2023-06-01T08:46:39;22.53;44.41
77496;SHT31;66600;48.378;9.948;2023-06-01T08:49:07;21.69;45.71
77496;SHT31;66600;48.378;9.948;2023-06-01T08:51:36;21.41;46.72
77496;SHT31;66600;48.378;9.948;2023-06-01T08:54:03;21.36;47.74
77496;SHT31;66600;48.378;9.948;2023-06-01T08:56:30;21.89;47.27
77496;SHT31;66600;48.378;9.948;2023-06-01T08:58:56;22.53;45.68
77496;SHT31;66600;48.378;9.948;2023-06-01T09:01:22;22.89;43.52
77496;SHT31;66600;48.378;9.948;2023-06-01T09:03:48;23.03;44.36
77496;SHT31;66600;48.378;9.948;2023-06-01T09:06:14;23.37;43.29
77496;SHT31;66600;48.378;9.948;2023-06-01T09:08:39;23.42;43.39
77496;SHT31;66600;48.378;9.948;2023-06-01T09:11:04;23.40;43.15
77496;SHT31;66600;48.378;9.948;2023-06-01T09:13:34;22.59;43.42
77496;SHT31;66600;48.378;9.948;2023-06-01T09:16:00;21.86;44.02
77496;SHT31;66600;48.378;9.948;2023-06-01T09:18:25;22.73;44.10
77496;SHT31;66600;48.378;9.948;2023-06-01T09:20:50;22.75;44.46
77496;SHT31;66600;48.378;9.948;2023-06-01T09:23:27;23.17;44.58
77496;SHT31;66600;48.378;9.948;2023-06-01T09:26:09;22.93;41.22
77496;SHT31;66600;48.378;9.948;2023-06-01T09:34:00;22.94;42.18
77496;SHT31;66600;48.378;9.948;2023-06-01T09:36:28;22.77;40.49
77496;SHT31;66600;48.378;9.948;2023-06-01T09:39:01;22.99;39.72
77496;SHT31;66600;48.378;9.948;2023-06-01T09:41:29;23.31;41.49
77496;SHT31;66600;48.378;9.948;2023-06-01T09:44:08;22.48;40.33
77496;SHT31;66600;48.378;9.948;2023-06-01T09:46:45;22.42;41.08
77496;SHT31;66600;48.378;9.948;2023-06-01T09:49:18;22.42;41.38
77496;SHT31;66600;48.378;9.948;2023-06-01T09:51:44;23.07;41.18
77496;SHT31;66600;48.378;9.948;2023-06-01T09:54:09;23.11;40.75
77496;SHT31;66600;48.378;9.948;2023-06-01T09:56:44;23.11;42.79
77496;SHT31;66600;48.378;9.948;2023-06-01T09:59:10;23.89;41.70
77496;SHT31;66600;48.378;9.948;2023-06-01T10:01:35;24.43;39.57
77496;SHT31;66600;48.378;9.948;2023-06-01T10:04:04;23.70;38.84
77496;SHT31;66600;48.378;9.948;2023-06-01T10:06:31;23.34;40.00
77496;SHT31;66600;48.378;9.948;2023-06-01T10:08:58;23.54;40.23
77496;SHT31;66600;48.378;9.948;2023-06-01T10:11:24;23.31;40.21
77496;SHT31;66600;48.378;9.948;2023-06-01T10:13:51;23.66;40.35
77496;SHT31;66600;48.378;9.948;2023-06-01T10:16:16;23.58;39.42
77496;SHT31;66600;48.378;9.948;2023-06-01T10:18:42;23.15;38.86
77496;SHT31;66600;48.378;9.948;2023-06-01T10:21:07;23.42;39.62
77496;SHT31;66600;48.378;9.948;2023-06-01T10:23:34;23.51;39.89
77496;SHT31;66600;48.378;9.948;2023-06-01T10:26:05;23.52;39.47
77496;SHT31;66600;48.378;9.948;2023-06-01T10:28:34;22.94;40.50
77496;SHT31;66600;48.378;9.948;2023-06-01T10:31:34;23.61;39.57
77496;SHT31;66600;48.378;9.948;2023-06-01T10:34:01;23.76;38.72
77496;SHT31;66600;48.378;9.948;2023-06-01T10:41:52;23.93;38.51
77496;SHT31;66600;48.378;9.948;2023-06-01T10:47:04;24.00;40.76
77496;SHT31;66600;48.378;9.948;2023-06-01T10:52:36;25.06;37.13
77496;SHT31;66600;48.378;9.948;2023-06-01T10:57:35;25.82;35.40
77496;SHT31;66600;48.378;9.948;2023-06-01T11:02:52;25.82;35.13
77496;SHT31;66600;48.378;9.948;2023-06-01T11:05:38;25.36;36.13
77496;SHT31;66600;48.378;9.948;2023-06-01T11:13:24;24.35;39.04
77496;SHT31;66600;48.378;9.948;2023-06-01T11:21:05;25.23;37.68
77496;SHT31;66600;48.378;9.948;2023-06-01T11:23:32;25.57;35.87
77496;SHT31;66600;48.378;9.948;2023-06-01T11:26:00;26.29;34.88
77496;SHT31;66600;48.378;9.948;2023-06-01T11:28:30;26.35;35.71
77496;SHT31;66600;48.378;9.948;2023-06-01T11:30:56;26.73;35.41
77496;SHT31;66600;48.378;9.948;2023-06-01T11:33:24;26.50;34.29
77496;SHT31;66600;48.378;9.948;2023-06-01T11:35:57;25.12;35.82
77496;SHT31;66600;48.378;9.948;2023-06-01T11:38:23;24.88;36.34
77496;SHT31;66600;48.378;9.948;2023-06-01T11:41:07;25.99;35.67
77496;SHT31;66600;48.378;9.948;2023-06-01T11:43:33;26.49;34.57
77496;SHT31;66600;48.378;9.948;2023-06-01T11:46:02;26.73;34.05
77496;SHT31;66600;48.378;9.948;2023-06-01T11:48:28;27.22;33.21
77496;SHT31;66600;48.378;9.948;2023-06-01T11:50:54;27.35;33.42
77496;SHT31;66600;48.378;9.948;2023-06-01T11:53:24;27.39;32.65
77496;SHT31;66600;48.378;9.948;2023-06-01T11:55:58;27.22;34.21
77496;SHT31;66600;48.378;9.948;2023-06-01T11:58:25;27.32;34.06
77496;SHT31;66600;48.378;9.948;2023-06-01T12:00:51;27.11;33.88
77496;SHT31;66600;48.378;9.948;2023-06-01T12:03:17;26.85;34.82
77496;SHT31;66600;48.378;9.948;2023-06-01T12:05:43;26.50;34.15
77496;SHT31;66600;48.378;9.948;2023-06-01T12:08:15;26.40;34.14
77496;SHT31;66600;48.378;9.948;2023-06-01T12:10:43;26.95;33.64
77496;SHT31;66600;48.378;9.948;2023-06-01T12:13:10;26.81;34.87
77496;SHT31;66600;48.378;9.948;2023-06-01T12:15:36;26.61;34.55
77496;SHT31;66600;48.378;9.948;2023-06-01T12:18:02;26.90;32.86
77496;SHT31;66600;48.378;9.948;2023-06-01T12:20:39;27.64;32.70
77496;SHT31;66600;48.378;9.948;2023-06-01T12:25:34;28.04;32.99
77496;SHT31;66600;48.378;9.948;2023-06-01T12:28:01;27.93;32.57
77496;SHT31;66600;48.378;9.948;2023-06-01T12:30:27;28.07;33.58
77496;SHT31;66600;48.378;9.948;2023-06-01T12:32:53;27.87;31.37
77496;SHT31;66600;48.378;9.948;2023-06-01T12:35:18;27.26;33.02
77496;SHT31;66600;48.378;9.948;2023-06-01T12:37:43;26.60;32.95
77496;SHT31;66600;48.378;9.948;2023-06-01T12:40:09;26.01;34.41
77496;SHT31;66600;48.378;9.948;2023-06-01T12:42:39;26.90;32.55
77496;SHT31;66600;48.378;9.948;2023-06-01T12:45:07;26.83;32.42
77496;SHT31;66600;48.378;9.948;2023-06-01T12:47:40;27.26;32.49
77496;SHT31;66600;48.378;9.948;2023-06-01T12:52:33;26.80;33.32
77496;SHT31;66600;48.378;9.948;2023-06-01T12:54:59;26.99;33.24
77496;SHT31;66600;48.378;9.948;2023-06-01T12:57:24;27.54;33.37
77496;SHT31;66600;48.378;9.948;2023-06-01T12:59:49;26.73;34.06
77496;SHT31;66600;48.378;9.948;2023-06-01T13:02:15;26.05;35.38
77496;SHT31;66600;48.378;9.948;2023-06-01T13:04:41;26.60;34.50
77496;SHT31;66600;48.378;9.948;2023-06-01T13:07:07;27.42;31.69
77496;SHT31;66600;48.378;9.948;2023-06-01T13:09:32;27.90;31.54
77496;SHT31;66600;48.378;9.948;2023-06-01T13:11:58;27.73;30.91
77496;SHT31;66600;48.378;9.948;2023-06-01T13:14:23;28.41;30.26
77496;SHT31;66600;48.378;9.948;2023-06-01T13:16:49;27.96;31.09
77496;SHT31;66600;48.378;9.948;2023-06-01T13:19:14;27.88;30.36
77496;SHT31;66600;48.378;9.948;2023-06-01T13:21:39;28.69;30.25
77496;SHT31;66600;48.378;9.948;2023-06-01T13:24:05;29.20;28.91
77496;SHT31;66600;48.378;9.948;2023-06-01T13:26:30;30.17;27.43
77496;SHT31;66600;48.378;9.948;2023-06-01T13:28:56;30.04;27.60
77496;SHT31;66600;48.378;9.948;2023-06-01T13:31:21;29.28;29.43
77496;SHT31;66600;48.378;9.948;2023-06-01T13:33:48;29.37;28.55
77496;SHT31;66600;48.378;9.948;2023-06-01T13:36:13;29.47;30.25
77496;SHT31;66600;48.378;9.948;2023-06-01T13:38:38;29.61;28.95
77496;SHT31;66600;48.378;9.948;2023-06-01T13:41:04;28.72;30.41
77496;SHT31;66600;48.378;9.948;2023-06-01T13:43:30;28.99;29.88
77496;SHT31;66600;48.378;9.948;2023-06-01T13:45:55;28.56;30.23
77496;SHT31;66600;48.378;9.948;2023-06-01T13:48:21;28.01;31.46
77496;SHT31;66600;48.378;9.948;2023-06-01T13:50:46;28.25;30.63
77496;SHT31;66600;48.378;9.948;2023-06-01T13:53:11;28.56;30.79
77496;SHT31;66600;48.378;9.948;2023-06-01T13:55:36;28.28;31.18
77496;SHT31;66600;48.378;9.948;2023-06-01T13:58:03;29.12;30.22
77496;SHT31;66600;48.378;9.948;2023-06-01T14:00:29;29.49;28.27
77496;SHT31;66600;48.378;9.948;2023-06-01T14:02:54;29.48;29.65
77496;SHT31;66600;48.378;9.948;2023-06-01T14:05:19;27.38;34.01
77496;SHT31;66600;48.378;9.948;2023-06-01T14:07:45;27.09;34.08
77496;SHT31;66600;48.378;9.948;2023-06-01T14:10:11;27.86;32.81
77496;SHT31;66600;48.378;9.948;2023-06-01T14:12:38;29.49;30.92
77496;SHT31;66600;48.378;9.948;2023-06-01T14:15:04;29.27;30.10
77496;SHT31;66600;48.378;9.948;2023-06-01T14:17:30;30.32;29.33
77496;SHT31;66600;48.378;9.948;2023-06-01T14:19:56;31.09;28.10
77496;SHT31;66600;48.378;9.948;2023-06-01T14:22:21;31.48;27.11
77496;SHT31;66600;48.378;9.948;2023-06-01T14:24:46;32.09;26.39
77496;SHT31;66600;48.378;9.948;2023-06-01T14:27:12;30.28;27.45
77496;SHT31;66600;48.378;9.948;2023-06-01T14:29:37;29.82;28.91
77496;SHT31;66600;48.378;9.948;2023-06-01T14:32:02;30.92;27.60
77496;SHT31;66600;48.378;9.948;2023-06-01T14:34:28;31.50;25.94
77496;SHT31;66600;48.378;9.948;2023-06-01T14:36:53;31.55;26.72
77496;SHT31;66600;48.378;9.948;2023-06-01T14:39:18;31.54;26.34
77496;SHT31;66600;48.378;9.948;2023-06-01T14:41:44;30.32;27.78
77496;SHT31;66600;48.378;9.948;2023-06-01T14:44:09;31.53;26.89
77496;SHT31;66600;48.378;9.948;2023-06-01T14:46:35;29.44;29.69
77496;SHT31;66600;48.378;9.948;2023-06-01T14:49:00;30.13;28.81
77496;SHT31;66600;48.378;9.948;2023-06-01T14:51:27;30.88;27.69
77496;SHT31;66600;48.378;9.948;2023-06-01T14:53:53;29.38;29.04
77496;SHT31;66600;48.378;9.948;2023-06-01T14:56:18;28.76;29.65
77496;SHT31;66600;48.378;9.948;2023-06-01T14:58:44;29.94;28.91
77496;SHT31;66600;48.378;9.948;2023-06-01T15:01:09;30.42;27.70
77496;SHT31;66600;48.378;9.948;2023-06-01T15:03:34;31.04;27.35
77496;SHT31;66600;48.378;9.948;2023-06-01T15:06:00;30.65;27.01
77496;SHT31;66600;48.378;9.948;2023-06-01T15:08:25;30.24;29.09
77496;SHT31;66600;48.378;9.948;2023-06-01T15:10:54;29.12;29.59
77496;SHT31;66600;48.378;9.948;2023-06-01T15:13:19;29.68;28.53
77496;SHT31;66600;48.378;9.948;2023-06-01T15:15:45;29.96;28.43
77496;SHT31;66600;48.378;9.948;2023-06-01T15:18:10;29.93;28.00
77496;SHT31;66600;48.378;9.948;2023-06-01T15:20:35;31.34;26.61
77496;SHT31;66600;48.378;9.948;2023-06-01T15:23:01;30.80;27.89
77496;SHT31;66600;48.378;9.948;2023-06-01T15:25:26;29.45;28.82
77496;SHT31;66600;48.378;9.948;2023-06-01T15:27:51;30.04;28.29
77496;SHT31;66600;48.378;9.948;2023-06-01T15:30:17;30.38;28.11
77496;SHT31;66600;48.378;9.948;2023-06-01T15:32:42;30.89;27.39
77496;SHT31;66600;48.378;9.948;2023-06-01T15:35:08;32.23;25.32
77496;SHT31;66600;48.378;9.948;2023-06-01T15:37:33;31.33;27.60
77496;SHT31;66600;48.378;9.948;2023-06-01T15:39:59;31.31;28.26
77496;SHT31;66600;48.378;9.948;2023-06-01T15:42:24;30.72;27.90
77496;SHT31;66600;48.378;9.948;2023-06-01T15:44:49;30.09;28.96
77496;SHT31;66600;48.378;9.948;2023-06-01T15:47:15;30.58;28.65
77496;SHT31;66600;48.378;9.948;2023-06-01T15:49:41;32.36;26.87
77496;SHT31;66600;48.378;9.948;2023-06-01T15:52:06;32.74;24.53
77496;SHT31;66600;48.378;9.948;2023-06-01T15:54:32;33.29;24.35
77496;SHT31;66600;48.378;9.948;2023-06-01T15:56:59;33.15;25.95
77496;SHT31;66600;48.378;9.948;2023-06-01T15:59:25;31.16;28.14
77496;SHT31;66600;48.378;9.948;2023-06-01T16:01:50;29.52;28.76
77496;SHT31;66600;48.378;9.948;2023-06-01T16:04:16;30.06;29.04
77496;SHT31;66600;48.378;9.948;2023-06-01T16:06:41;30.21;28.40
77496;SHT31;66600;48.378;9.948;2023-06-01T16:09:07;30.75;27.09